createdAt,value
2018-09-11T00:00:17.794Z,18.70
2018-09-11T00:02:47.001Z,18.70
2018-09-11T00:05:16.064Z,18.70
2018-09-11T00:07:45.204Z,18.70
2018-09-11T00:10:14.561Z,18.60
2018-09-11T00:12:43.715Z,18.60
2018-09-11T00:15:12.853Z,18.60
2018-09-11T00:17:42.066Z,18.60
2018-09-11T00:20:11.265Z,18.60
2018-09-11T00:22:40.393Z,18.60
2018-09-11T00:25:09.541Z,18.60
2018-09-11T00:27:38.691Z,18.60
2018-09-11T00:30:07.829Z,18.60
2018-09-11T00:32:37.001Z,18.60
2018-09-11T00:35:06.131Z,18.60
2018-09-11T00:37:35.303Z,18.60
2018-09-11T00:40:04.463Z,18.60
2018-09-11T00:42:33.617Z,18.60
2018-09-11T00:45:02.736Z,18.60
2018-09-11T00:47:31.877Z,18.60
2018-09-11T00:50:01.001Z,18.60
2018-09-11T00:52:30.122Z,18.50
2018-09-11T00:54:59.417Z,18.50
2018-09-11T00:57:28.545Z,18.50
2018-09-11T00:59:57.691Z,18.50
2018-09-11T01:02:26.810Z,18.50
2018-09-11T01:04:55.949Z,18.50
2018-09-11T01:07:25.072Z,18.50
2018-09-11T01:09:54.213Z,18.50
2018-09-11T01:12:23.345Z,18.50
2018-09-11T01:14:52.502Z,18.50
2018-09-11T01:17:21.641Z,18.40
2018-09-11T01:19:50.793Z,18.40
2018-09-11T01:22:19.946Z,18.40
2018-09-11T01:24:49.084Z,18.40
2018-09-11T01:27:18.269Z,18.40
2018-09-11T01:29:47.389Z,18.40
2018-09-11T01:32:16.538Z,18.40
2018-09-11T01:34:45.675Z,18.40
2018-09-11T01:37:14.822Z,18.40
2018-09-11T01:39:43.957Z,18.30
2018-09-11T01:42:13.105Z,18.30
2018-09-11T01:44:42.802Z,18.30
2018-09-11T01:47:11.968Z,18.30
2018-09-11T01:49:41.113Z,18.30
2018-09-11T01:52:10.245Z,18.30
2018-09-11T01:54:39.386Z,18.30
2018-09-11T01:57:08.524Z,18.30
2018-09-11T01:59:37.704Z,18.30
2018-09-11T02:02:06.813Z,18.30
2018-09-11T02:04:35.944Z,18.30
2018-09-11T02:07:05.086Z,18.30
2018-09-11T02:09:34.229Z,18.20
2018-09-11T02:12:03.364Z,18.20
2018-09-11T02:14:32.493Z,18.30
2018-09-11T02:17:01.656Z,18.20
2018-09-11T02:19:30.801Z,18.20
2018-09-11T02:21:59.988Z,18.20
2018-09-11T02:24:29.103Z,18.20
2018-09-11T02:26:58.249Z,18.20
2018-09-11T02:29:27.368Z,18.20
2018-09-11T02:31:56.516Z,18.20
2018-09-11T02:34:25.664Z,18.20
2018-09-11T02:36:54.797Z,18.10
2018-09-11T02:39:27.621Z,18.10
2018-09-11T02:41:56.765Z,18.10
2018-09-11T02:44:26.005Z,18.10
2018-09-11T02:46:55.151Z,18.10
2018-09-11T02:49:24.277Z,18.10
2018-09-11T02:51:53.410Z,18.00
2018-09-11T02:54:22.554Z,18.00
2018-09-11T02:56:58.367Z,18.00
2018-09-11T02:59:27.493Z,18.00
2018-09-11T03:01:56.637Z,17.90
2018-09-11T03:04:25.765Z,17.90
2018-09-11T03:06:54.905Z,17.90
2018-09-11T03:09:24.033Z,17.90
2018-09-11T03:11:53.199Z,17.80
2018-09-11T03:14:22.396Z,17.80
2018-09-11T03:16:51.556Z,17.70
2018-09-11T03:19:20.765Z,17.70
2018-09-11T03:21:49.918Z,17.70
2018-09-11T03:24:19.181Z,17.60
2018-09-11T03:26:48.329Z,17.60
2018-09-11T03:29:17.472Z,17.50
2018-09-11T03:31:46.681Z,17.50
2018-09-11T03:34:15.842Z,17.50
2018-09-11T03:36:44.985Z,17.50
2018-09-11T03:39:14.123Z,17.50
2018-09-11T03:41:43.256Z,17.50
2018-09-11T03:44:12.465Z,17.50
2018-09-11T03:46:41.538Z,17.50
2018-09-11T03:49:10.689Z,17.50
2018-09-11T03:51:39.853Z,17.40
2018-09-11T03:54:08.997Z,17.40
2018-09-11T03:56:38.136Z,17.40
2018-09-11T03:59:07.303Z,17.40
2018-09-11T04:01:36.380Z,17.40
2018-09-11T04:04:05.534Z,17.40
2018-09-11T04:06:34.653Z,17.40
2018-09-11T04:09:05.374Z,17.40
2018-09-11T04:11:34.546Z,17.40
2018-09-11T04:14:03.672Z,17.40
2018-09-11T04:16:32.825Z,17.40
2018-09-11T04:19:02.106Z,17.40
2018-09-11T04:21:31.368Z,17.40
2018-09-11T04:24:00.493Z,17.40
2018-09-11T04:26:29.640Z,17.30
2018-09-11T04:28:58.868Z,17.30
2018-09-11T04:31:28.058Z,17.30
2018-09-11T04:33:57.185Z,17.30
2018-09-11T04:36:32.624Z,17.30
2018-09-11T04:39:01.673Z,17.30
2018-09-11T04:41:30.814Z,17.30
2018-09-11T04:43:59.967Z,17.30
2018-09-11T04:46:29.090Z,17.30
2018-09-11T04:48:58.233Z,17.20
2018-09-11T04:51:27.392Z,17.20
2018-09-11T04:53:56.544Z,17.20
2018-09-11T04:56:25.677Z,17.20
2018-09-11T04:58:54.891Z,17.10
2018-09-11T05:01:24.016Z,17.20
2018-09-11T05:03:53.169Z,17.20
2018-09-11T05:06:22.393Z,17.20
2018-09-11T05:08:51.537Z,17.20
2018-09-11T05:11:20.661Z,17.20
2018-09-11T05:13:49.821Z,17.20
2018-09-11T05:16:18.981Z,17.20
2018-09-11T05:18:48.138Z,17.20
2018-09-11T05:21:17.281Z,17.20
2018-09-11T05:23:46.438Z,17.20
2018-09-11T05:26:15.570Z,17.20
2018-09-11T05:28:44.725Z,17.20
2018-09-11T05:31:13.868Z,17.20
2018-09-11T05:33:42.993Z,17.20
2018-09-11T05:36:12.129Z,17.20
2018-09-11T05:38:41.292Z,17.20
2018-09-11T05:41:10.489Z,17.20
2018-09-11T05:43:39.629Z,17.20
2018-09-11T05:46:08.776Z,17.20
2018-09-11T05:48:38.018Z,17.20
2018-09-11T05:51:07.430Z,17.20
2018-09-11T05:53:36.573Z,17.20
2018-09-11T05:56:05.977Z,17.20
2018-09-11T05:58:35.109Z,17.20
2018-09-11T06:01:04.229Z,17.30
2018-09-11T06:03:33.369Z,17.30
2018-09-11T06:06:02.505Z,17.40
2018-09-11T06:08:31.674Z,17.40
2018-09-11T06:11:00.798Z,17.50
2018-09-11T06:13:30.013Z,17.50
2018-09-11T06:15:59.158Z,17.60
2018-09-11T06:18:28.444Z,17.60
2018-09-11T06:20:57.613Z,17.70
2018-09-11T06:23:26.763Z,17.70
2018-09-11T06:25:56.013Z,17.70
2018-09-11T06:28:25.086Z,17.80
2018-09-11T06:30:54.220Z,17.90
2018-09-11T06:33:23.342Z,17.90
2018-09-11T06:35:52.493Z,18.00
2018-09-11T06:38:21.634Z,18.00
2018-09-11T06:40:57.232Z,18.00
2018-09-11T06:43:26.357Z,18.10
2018-09-11T06:45:55.541Z,18.10
2018-09-11T06:48:24.684Z,18.10
2018-09-11T06:50:53.893Z,18.20
2018-09-11T06:53:23.066Z,18.30
2018-09-11T06:55:52.185Z,18.30
2018-09-11T06:58:21.321Z,18.40
2018-09-11T07:00:50.466Z,18.40
2018-09-11T07:03:19.590Z,18.50
2018-09-11T07:05:48.729Z,18.50
2018-09-11T07:08:17.877Z,18.60
2018-09-11T07:10:47.021Z,18.70
2018-09-11T07:13:16.150Z,18.70
2018-09-11T07:15:45.317Z,18.80
2018-09-11T07:18:14.441Z,18.90
2018-09-11T07:20:49.948Z,19.10
2018-09-11T07:23:19.089Z,19.20
2018-09-11T07:25:48.225Z,19.30
2018-09-11T07:28:17.380Z,19.50
2018-09-11T07:30:46.509Z,19.60
2018-09-11T07:33:15.649Z,19.80
2018-09-11T07:35:44.789Z,20.00
2018-09-11T07:38:14.586Z,20.10
2018-09-11T07:40:43.793Z,20.30
2018-09-11T07:43:12.931Z,20.40
2018-09-11T07:45:42.070Z,20.50
2018-09-11T07:48:11.228Z,20.60
2018-09-11T07:50:40.365Z,20.70
2018-09-11T07:53:09.510Z,20.80
2018-09-11T07:55:38.635Z,20.90
2018-09-11T07:58:08.202Z,21.00
2018-09-11T08:00:37.297Z,21.10
2018-09-11T08:03:06.492Z,21.20
2018-09-11T08:05:35.571Z,21.30
2018-09-11T08:08:04.720Z,21.30
2018-09-11T08:10:33.840Z,21.40
2018-09-11T08:13:02.993Z,21.50
2018-09-11T08:15:32.119Z,21.60
2018-09-11T08:18:01.298Z,21.70
2018-09-11T08:20:30.441Z,21.80
2018-09-11T08:22:59.581Z,21.80
2018-09-11T08:25:28.732Z,21.90
2018-09-11T08:27:57.876Z,21.90
2018-09-11T08:30:29.881Z,22.10
2018-09-11T08:32:59.009Z,22.20
2018-09-11T08:35:28.194Z,22.30
2018-09-11T08:37:57.325Z,22.30
2018-09-11T08:40:26.473Z,22.40
2018-09-11T08:42:55.613Z,22.40
2018-09-11T08:45:24.737Z,22.40
2018-09-11T08:47:53.886Z,22.40
2018-09-11T08:50:23.028Z,22.50
2018-09-11T08:52:52.186Z,22.50
2018-09-11T08:55:21.374Z,22.50
2018-09-11T08:57:50.477Z,22.60
2018-09-11T09:00:19.648Z,22.60
2018-09-11T09:02:48.773Z,22.70
2018-09-11T09:05:17.896Z,22.80
2018-09-11T09:07:47.017Z,23.00
2018-09-11T09:10:16.166Z,23.10
2018-09-11T09:12:45.326Z,23.20
2018-09-11T09:15:14.469Z,23.20
2018-09-11T09:17:43.612Z,23.30
2018-09-11T09:20:12.737Z,23.40
2018-09-11T09:22:41.885Z,23.40
2018-09-11T09:25:11.034Z,23.40
2018-09-11T09:27:40.164Z,23.40
2018-09-11T09:30:09.305Z,23.40
2018-09-11T09:32:38.489Z,23.30
2018-09-11T09:35:07.837Z,23.30
2018-09-11T09:37:36.997Z,23.30
2018-09-11T09:40:06.121Z,23.30
2018-09-11T09:42:35.263Z,23.40
2018-09-11T09:45:04.774Z,23.50
2018-09-11T09:47:33.929Z,23.60
2018-09-11T09:50:03.090Z,23.70
2018-09-11T09:52:32.279Z,23.80
2018-09-11T09:55:01.406Z,23.90
2018-09-11T09:57:30.595Z,24.00
2018-09-11T09:59:59.753Z,24.20
2018-09-11T10:02:35.145Z,24.40
2018-09-11T10:05:04.269Z,24.50
2018-09-11T10:07:33.409Z,24.60
2018-09-11T10:10:02.543Z,24.70
2018-09-11T10:12:31.681Z,24.80
2018-09-11T10:15:00.810Z,24.90
2018-09-11T10:17:29.997Z,25.00
2018-09-11T10:19:59.147Z,25.00
2018-09-11T10:22:28.313Z,25.10
2018-09-11T10:24:57.453Z,25.10
2018-09-11T10:27:26.621Z,25.10
2018-09-11T10:30:02.413Z,25.10
2018-09-11T10:32:31.651Z,25.20
2018-09-11T10:35:00.821Z,25.30
2018-09-11T10:37:30.054Z,25.30
2018-09-11T10:39:59.185Z,25.40
2018-09-11T10:42:28.309Z,25.40
2018-09-11T10:44:57.488Z,25.40
2018-09-11T10:47:26.585Z,25.50
2018-09-11T10:49:55.728Z,25.60
2018-09-11T10:52:24.874Z,25.80
2018-09-11T10:54:54.000Z,26.00
2018-09-11T10:57:23.153Z,26.20
2018-09-11T10:59:52.281Z,26.30
2018-09-11T11:02:21.429Z,26.50
2018-09-11T11:04:50.571Z,26.60
2018-09-11T11:07:19.721Z,26.80
2018-09-11T11:09:48.880Z,26.90
2018-09-11T11:12:18.045Z,26.90
2018-09-11T11:14:47.245Z,26.90
2018-09-11T11:17:16.399Z,26.70
2018-09-11T11:19:45.544Z,26.70
2018-09-11T11:22:17.601Z,26.70
2018-09-11T11:24:46.729Z,26.70
2018-09-11T11:27:15.951Z,26.80
2018-09-11T11:29:45.966Z,26.80
2018-09-11T11:32:15.129Z,26.80
2018-09-11T11:34:44.230Z,26.80
2018-09-11T11:37:13.519Z,26.90
2018-09-11T11:39:42.506Z,26.70
2018-09-11T11:42:11.660Z,26.70
2018-09-11T11:44:40.805Z,26.70
2018-09-11T11:47:09.965Z,26.70
2018-09-11T11:49:39.109Z,26.90
2018-09-11T11:52:08.238Z,27.00
2018-09-11T11:54:37.383Z,27.10
2018-09-11T11:57:06.523Z,27.20
2018-09-11T11:59:35.648Z,27.40
2018-09-11T12:02:04.836Z,27.50
2018-09-11T12:04:33.933Z,27.50
2018-09-11T12:07:03.078Z,27.50
2018-09-11T12:09:32.224Z,27.40
2018-09-11T12:12:01.362Z,27.40
2018-09-11T12:14:30.526Z,27.40
2018-09-11T12:16:59.767Z,27.50
2018-09-11T12:19:28.814Z,27.60
2018-09-11T12:21:57.991Z,27.60
2018-09-11T12:24:27.105Z,27.60
2018-09-11T12:26:56.229Z,27.60
2018-09-11T12:29:25.372Z,27.70
2018-09-11T12:31:54.575Z,27.70
2018-09-11T12:34:23.725Z,27.80
2018-09-11T12:36:52.912Z,27.80
2018-09-11T12:39:22.082Z,27.90
2018-09-11T12:41:51.205Z,28.00
2018-09-11T12:44:20.385Z,28.00
2018-09-11T12:46:49.672Z,28.10
2018-09-11T12:49:25.205Z,28.20
2018-09-11T12:51:54.328Z,28.10
2018-09-11T12:54:23.602Z,28.00
2018-09-11T12:56:52.733Z,28.00
2018-09-11T12:59:21.857Z,28.00
2018-09-11T13:01:50.987Z,28.00
2018-09-11T13:04:20.149Z,28.00
2018-09-11T13:06:49.313Z,28.10
2018-09-11T13:09:18.475Z,28.10
2018-09-11T13:11:47.589Z,28.10
2018-09-11T13:14:16.729Z,28.20
2018-09-11T13:16:45.930Z,28.20
2018-09-11T13:19:15.013Z,28.20
2018-09-11T13:21:44.446Z,28.20
2018-09-11T13:24:13.573Z,28.20
2018-09-11T13:26:42.702Z,28.20
2018-09-11T13:29:12.021Z,28.20
2018-09-11T13:31:47.852Z,28.20
2018-09-11T13:34:17.000Z,28.20
2018-09-11T13:36:46.173Z,28.20
2018-09-11T13:39:15.330Z,28.20
2018-09-11T13:41:44.460Z,28.30
2018-09-11T13:44:13.614Z,28.30
2018-09-11T13:46:49.612Z,28.30
2018-09-11T13:49:18.704Z,28.40
2018-09-11T13:51:47.836Z,28.40
2018-09-11T13:54:16.969Z,28.30
2018-09-11T13:56:46.118Z,28.40
2018-09-11T13:59:15.301Z,28.30
2018-09-11T14:01:44.425Z,28.40
2018-09-11T14:04:13.593Z,28.30
2018-09-11T14:06:42.735Z,28.30
2018-09-11T14:09:14.633Z,28.30
2018-09-11T14:11:44.702Z,28.30
2018-09-11T14:14:13.814Z,28.40
2018-09-11T14:16:42.949Z,28.30
2018-09-11T14:19:12.094Z,28.30
2018-09-11T14:21:41.214Z,28.40
2018-09-11T14:24:10.350Z,28.40
2018-09-11T14:26:39.529Z,28.40
2018-09-11T14:29:08.694Z,28.40
2018-09-11T14:31:37.825Z,28.30
2018-09-11T14:34:06.996Z,28.30
2018-09-11T14:36:36.140Z,28.20
2018-09-11T14:39:07.769Z,28.20
2018-09-11T14:41:37.097Z,28.20
2018-09-11T14:44:06.493Z,28.30
2018-09-11T14:46:35.773Z,28.30
2018-09-11T14:49:04.876Z,28.30
2018-09-11T14:51:34.134Z,28.30
2018-09-11T14:54:03.284Z,28.20
2018-09-11T14:56:32.409Z,28.10
2018-09-11T14:59:01.557Z,28.00
2018-09-11T15:01:30.690Z,27.80
2018-09-11T15:03:59.818Z,27.70
2018-09-11T15:06:28.962Z,27.50
2018-09-11T15:08:58.144Z,27.30
2018-09-11T15:11:27.235Z,27.10
2018-09-11T15:13:56.365Z,27.00
2018-09-11T15:16:25.754Z,26.90
2018-09-11T15:18:54.887Z,26.70
2018-09-11T15:21:24.023Z,26.60
2018-09-11T15:23:53.165Z,26.50
2018-09-11T15:26:22.289Z,26.40
2018-09-11T15:28:51.439Z,26.40
2018-09-11T15:31:20.581Z,26.30
2018-09-11T15:33:49.717Z,26.20
2018-09-11T15:36:18.861Z,26.10
2018-09-11T15:38:47.983Z,26.00
2018-09-11T15:41:17.121Z,26.00
2018-09-11T15:43:46.265Z,25.90
2018-09-11T15:46:15.398Z,25.90
2018-09-11T15:48:44.548Z,25.80
2018-09-11T15:51:13.673Z,25.80
2018-09-11T15:53:42.809Z,25.70
2018-09-11T15:56:11.933Z,25.70
2018-09-11T15:58:41.117Z,25.70
2018-09-11T16:01:10.333Z,25.60
2018-09-11T16:03:39.465Z,25.60
2018-09-11T16:06:08.633Z,25.50
2018-09-11T16:08:37.773Z,25.50
2018-09-11T16:11:06.921Z,25.50
2018-09-11T16:13:36.037Z,25.50
2018-09-11T16:16:05.203Z,25.50
2018-09-11T16:18:34.317Z,25.50
2018-09-11T16:21:03.500Z,25.40
2018-09-11T16:23:32.650Z,25.40
2018-09-11T16:26:01.922Z,25.30
2018-09-11T16:28:31.057Z,25.30
2018-09-11T16:31:00.193Z,25.20
2018-09-11T16:33:29.347Z,25.20
2018-09-11T16:35:58.479Z,25.10
2018-09-11T16:38:27.682Z,25.00
2018-09-11T16:40:56.805Z,24.90
2018-09-11T16:43:26.001Z,24.90
2018-09-11T16:45:55.147Z,24.90
2018-09-11T16:48:24.280Z,24.80
2018-09-11T16:50:53.542Z,24.80
2018-09-11T16:53:22.685Z,24.80
2018-09-11T16:55:51.904Z,24.80
2018-09-11T16:58:21.329Z,24.70
2018-09-11T17:00:50.466Z,24.70
2018-09-11T17:03:19.630Z,24.70
2018-09-11T17:05:48.797Z,24.60
2018-09-11T17:08:17.943Z,24.50
2018-09-11T17:10:47.325Z,24.40
2018-09-11T17:13:16.877Z,24.30
2018-09-11T17:15:46.041Z,24.30
2018-09-11T17:18:15.197Z,24.20
2018-09-11T17:20:44.350Z,24.20
2018-09-11T17:23:13.474Z,24.20
2018-09-11T17:25:42.639Z,24.20
2018-09-11T17:28:11.766Z,24.20
2018-09-11T17:30:40.951Z,24.20
2018-09-11T17:33:10.085Z,24.10
2018-09-11T17:35:39.286Z,24.00
2018-09-11T17:38:08.377Z,24.00
2018-09-11T17:40:37.533Z,23.90
2018-09-11T17:43:06.685Z,23.80
2018-09-11T17:45:35.886Z,23.70
2018-09-11T17:48:05.112Z,23.60
2018-09-11T17:50:34.234Z,23.50
2018-09-11T17:53:03.418Z,23.50
2018-09-11T17:55:32.698Z,23.40
2018-09-11T17:58:01.881Z,23.30
2018-09-11T18:00:31.014Z,23.20
2018-09-11T18:03:00.187Z,23.20
2018-09-11T18:05:29.297Z,23.10
2018-09-11T18:07:58.450Z,23.10
2018-09-11T18:10:27.586Z,23.00
2018-09-11T18:12:56.721Z,22.90
2018-09-11T18:15:25.986Z,22.80
2018-09-11T18:17:55.118Z,22.70
2018-09-11T18:20:24.266Z,22.70
2018-09-11T18:22:53.721Z,22.60
2018-09-11T18:25:22.883Z,22.50
2018-09-11T18:27:52.029Z,22.50
2018-09-11T18:30:21.190Z,22.40
2018-09-11T18:32:50.325Z,22.40
2018-09-11T18:35:19.456Z,22.40
2018-09-11T18:37:48.581Z,22.30
2018-09-11T18:40:17.728Z,22.30
2018-09-11T18:42:46.882Z,22.20
2018-09-11T18:45:16.129Z,22.20
2018-09-11T18:47:45.305Z,22.20
2018-09-11T18:50:14.517Z,22.20
2018-09-11T18:52:43.750Z,22.10
2018-09-11T18:55:12.919Z,22.10
2018-09-11T18:57:42.102Z,22.10
2018-09-11T19:00:11.193Z,22.10
2018-09-11T19:02:40.389Z,22.00
2018-09-11T19:05:09.577Z,22.00
2018-09-11T19:07:38.681Z,22.00
2018-09-11T19:10:07.860Z,22.00
2018-09-11T19:12:37.006Z,22.00
2018-09-11T19:15:06.521Z,21.90
2018-09-11T19:17:35.661Z,22.00
2018-09-11T19:20:05.281Z,22.00
2018-09-11T19:22:34.910Z,22.00
2018-09-11T19:25:07.044Z,22.00
2018-09-11T19:27:36.173Z,21.90
2018-09-11T19:30:07.101Z,21.90
2018-09-11T19:32:36.257Z,21.90
2018-09-11T19:35:05.797Z,21.80
2018-09-11T19:37:35.010Z,21.80
2018-09-11T19:40:04.600Z,21.80
2018-09-11T19:42:33.868Z,21.80
2018-09-11T19:45:03.109Z,21.80
2018-09-11T19:47:32.314Z,21.70
2018-09-11T19:50:01.676Z,21.70
2018-09-11T19:52:30.756Z,21.60
2018-09-11T19:55:00.014Z,21.60
2018-09-11T19:57:29.178Z,21.60
2018-09-11T19:59:58.362Z,21.60
2018-09-11T20:02:27.517Z,21.50
2018-09-11T20:04:56.743Z,21.40
2018-09-11T20:07:25.926Z,21.30
2018-09-11T20:09:55.073Z,21.30
2018-09-11T20:12:24.273Z,21.30
2018-09-11T20:14:53.449Z,21.20
2018-09-11T20:17:22.605Z,21.10
2018-09-11T20:19:51.788Z,21.10
2018-09-11T20:22:20.958Z,21.00
2018-09-11T20:24:50.130Z,21.00
2018-09-11T20:27:19.277Z,20.90
2018-09-11T20:29:48.420Z,21.00
2018-09-11T20:32:17.597Z,20.90
2018-09-11T20:34:46.885Z,20.90
2018-09-11T20:37:16.093Z,20.80
2018-09-11T20:39:45.269Z,20.80
2018-09-11T20:42:14.441Z,20.80
2018-09-11T20:44:43.596Z,20.70
2018-09-11T20:47:12.727Z,20.70
2018-09-11T20:49:41.885Z,20.70
2018-09-11T20:52:11.014Z,20.70
2018-09-11T20:54:40.206Z,20.60
2018-09-11T20:57:09.484Z,20.60
2018-09-11T20:59:38.613Z,20.50
2018-09-11T21:02:07.810Z,20.50
2018-09-11T21:04:36.949Z,20.50
2018-09-11T21:07:06.104Z,20.50
2018-09-11T21:09:35.336Z,20.40
2018-09-11T21:12:04.474Z,20.40
2018-09-11T21:14:33.637Z,20.50
2018-09-11T21:17:02.789Z,20.40
2018-09-11T21:19:31.954Z,20.40
2018-09-11T21:22:01.338Z,20.40
2018-09-11T21:24:30.502Z,20.30
2018-09-11T21:26:59.673Z,20.30
2018-09-11T21:29:28.909Z,20.30
2018-09-11T21:31:58.340Z,20.30
2018-09-11T21:34:27.665Z,20.20
2018-09-11T21:36:56.809Z,20.20
2018-09-11T21:39:25.996Z,20.20
2018-09-11T21:41:55.150Z,20.30
2018-09-11T21:44:24.283Z,20.30
2018-09-11T21:46:53.418Z,20.20
2018-09-11T21:49:22.533Z,20.20
2018-09-11T21:51:51.699Z,20.20
2018-09-11T21:54:20.845Z,20.20
2018-09-11T21:56:50.010Z,20.20
2018-09-11T21:59:19.157Z,20.20
2018-09-11T22:01:53.271Z,20.30
2018-09-11T22:04:23.287Z,20.20
2018-09-11T22:06:52.498Z,20.30
2018-09-11T22:09:21.899Z,20.20
2018-09-11T22:11:51.060Z,20.30
2018-09-11T22:14:20.180Z,20.20
2018-09-11T22:16:49.300Z,20.20
2018-09-11T22:19:18.504Z,20.20
2018-09-11T22:21:47.613Z,20.20
2018-09-11T22:24:16.745Z,20.10
2018-09-11T22:26:45.889Z,20.10
2018-09-11T22:29:15.037Z,20.00
2018-09-11T22:31:44.188Z,20.00
2018-09-11T22:34:13.322Z,20.00
2018-09-11T22:36:42.469Z,19.90
2018-09-11T22:39:11.597Z,19.90
2018-09-11T22:41:40.811Z,19.80
2018-09-11T22:44:09.884Z,19.80
2018-09-11T22:46:39.021Z,19.80
2018-09-11T22:49:08.173Z,19.80
2018-09-11T22:51:37.302Z,19.70
2018-09-11T22:54:06.670Z,19.70
2018-09-11T22:56:35.792Z,19.70
2018-09-11T22:59:04.917Z,19.70
2018-09-11T23:01:34.053Z,19.60
2018-09-11T23:04:03.207Z,19.60
2018-09-11T23:06:32.335Z,19.60
2018-09-11T23:09:01.514Z,19.60
2018-09-11T23:11:30.681Z,19.50
2018-09-11T23:13:59.801Z,19.50
2018-09-11T23:16:28.950Z,19.50
2018-09-11T23:18:58.078Z,19.50
2018-09-11T23:21:27.326Z,19.40
2018-09-11T23:23:56.457Z,19.40
2018-09-11T23:26:25.577Z,19.30
2018-09-11T23:28:54.725Z,19.40
2018-09-11T23:31:23.887Z,19.30
2018-09-11T23:33:53.028Z,19.30
2018-09-11T23:36:22.157Z,19.30
2018-09-11T23:38:51.305Z,19.20
2018-09-11T23:41:20.462Z,19.20
2018-09-11T23:43:49.594Z,19.20
2018-09-11T23:46:18.728Z,19.10
2018-09-11T23:48:47.910Z,19.10
2018-09-11T23:51:17.071Z,19.10
2018-09-11T23:53:46.201Z,19.10
2018-09-11T23:56:15.365Z,19.00
2018-09-11T23:58:44.501Z,19.00
